createdAt,value
2023-07-01T00:00:44.849Z,1175.00
2023-07-01T00:01:44.791Z,1162.00
2023-07-01T00:02:44.800Z,1159.00
2023-07-01T00:03:44.854Z,1154.00
2023-07-01T00:04:44.829Z,1156.00
2023-07-01T00:05:44.800Z,1143.00
2023-07-01T00:06:44.854Z,1148.00
2023-07-01T00:07:44.853Z,1148.00
2023-07-01T00:08:44.893Z,1132.00
2023-07-01T00:09:44.929Z,1134.00
2023-07-01T00:10:45.096Z,1139.00
2023-07-01T00:11:44.970Z,1147.00
2023-07-01T00:12:45.027Z,1124.00
2023-07-01T00:13:45.052Z,1133.00
2023-07-01T00:14:45.098Z,1124.00
2023-07-01T00:15:45.119Z,1133.00
2023-07-01T00:16:45.231Z,1115.00
2023-07-01T00:17:45.181Z,1116.00
2023-07-01T00:18:45.169Z,1128.00
2023-07-01T00:19:45.215Z,1118.00
2023-07-01T00:20:45.461Z,1100.00
2023-07-01T00:21:45.336Z,1102.00
2023-07-01T00:22:45.391Z,1112.00
2023-07-01T00:23:45.457Z,1090.00
2023-07-01T00:24:45.521Z,1092.00
2023-07-01T00:25:45.509Z,1092.00
2023-07-01T00:26:45.593Z,1090.00
2023-07-01T00:27:45.636Z,1085.00
2023-07-01T00:28:45.715Z,1081.00
2023-07-01T00:29:45.674Z,1096.00
2023-07-01T00:30:46.035Z,1087.00
2023-07-01T00:31:45.943Z,1082.00
2023-07-01T00:32:45.787Z,1083.00
2023-07-01T00:33:45.794Z,1096.00
2023-07-01T00:34:45.780Z,1085.00
2023-07-01T00:35:45.822Z,1076.00
2023-07-01T00:36:45.844Z,1073.00
2023-07-01T00:37:45.854Z,1081.00
2023-07-01T00:38:45.853Z,1076.00
2023-07-01T00:39:45.929Z,1068.00
2023-07-01T00:40:46.290Z,1075.00
2023-07-01T00:41:46.096Z,1079.00
2023-07-01T00:42:46.041Z,1076.00
2023-07-01T00:43:46.083Z,1063.00
2023-07-01T00:44:46.107Z,1069.00
2023-07-01T00:45:46.243Z,1061.00
2023-07-01T00:46:46.187Z,1055.00
2023-07-01T00:47:46.186Z,1042.00
2023-07-01T00:48:46.188Z,1065.00
2023-07-01T00:49:46.235Z,1051.00
2023-07-01T00:50:46.577Z,1062.00
2023-07-01T00:51:46.342Z,1061.00
2023-07-01T00:52:46.336Z,1061.00
2023-07-01T00:53:46.308Z,1049.00
2023-07-01T00:54:46.370Z,1051.00
2023-07-01T00:55:46.437Z,1052.00
2023-07-01T00:56:46.494Z,1039.00
2023-07-01T00:57:46.511Z,1042.00
2023-07-01T00:58:46.494Z,1048.00
2023-07-01T00:59:46.492Z,1061.00
2023-07-01T01:00:46.663Z,1039.00
2023-07-01T01:01:46.625Z,1052.00
2023-07-01T01:02:46.609Z,1032.00
2023-07-01T01:03:46.624Z,1040.00
2023-07-01T01:04:46.614Z,1043.00
2023-07-01T01:05:46.631Z,1040.00
2023-07-01T01:06:46.662Z,1035.00
2023-07-01T01:07:46.596Z,1039.00
2023-07-01T01:08:46.599Z,1043.00
2023-07-01T01:09:46.649Z,1027.00
2023-07-01T01:10:46.720Z,1027.00
2023-07-01T01:11:46.633Z,1032.00
2023-07-01T01:12:46.611Z,1029.00
2023-07-01T01:13:46.635Z,1029.00
2023-07-01T01:14:46.642Z,1015.00
2023-07-01T01:15:46.618Z,1020.00
2023-07-01T01:16:46.592Z,1014.00
2023-07-01T01:17:46.692Z,1019.00
2023-07-01T01:18:46.624Z,1025.00
2023-07-01T01:19:46.597Z,1022.00
2023-07-01T01:20:46.934Z,1011.00
2023-07-01T01:21:46.579Z,1024.00
2023-07-01T01:22:54.802Z,1011.00
2023-07-01T01:23:47.571Z,1013.00
2023-07-01T01:24:46.572Z,1013.00
2023-07-01T01:25:46.581Z,1018.00
2023-07-01T01:26:46.556Z,1014.00
2023-07-01T01:27:46.588Z,1009.00
2023-07-01T01:28:46.538Z,1017.00
2023-07-01T01:29:46.531Z,1008.00
2023-07-01T01:30:46.748Z,1008.00
2023-07-01T01:31:46.632Z,1012.00
2023-07-01T01:32:46.494Z,1014.00
2023-07-01T01:33:46.521Z,993.00
2023-07-01T01:34:46.477Z,997.00
2023-07-01T01:35:46.484Z,999.00
2023-07-01T01:36:46.487Z,1002.00
2023-07-01T01:37:46.512Z,994.00
2023-07-01T01:38:46.461Z,987.00
2023-07-01T01:39:46.468Z,972.00
2023-07-01T01:40:46.776Z,979.00
2023-07-01T01:41:46.436Z,980.00
2023-07-01T01:42:46.451Z,985.00
2023-07-01T01:43:46.450Z,985.00
2023-07-01T01:44:46.493Z,972.00
2023-07-01T01:45:46.399Z,987.00
2023-07-01T01:46:46.437Z,990.00
2023-07-01T01:47:46.633Z,988.00
2023-07-01T01:48:46.431Z,977.00
2023-07-01T01:49:46.432Z,980.00
2023-07-01T01:50:46.604Z,977.00
2023-07-01T01:51:46.372Z,970.00
2023-07-01T01:52:46.576Z,988.00
2023-07-01T01:53:46.410Z,974.00
2023-07-01T01:54:46.431Z,976.00
2023-07-01T01:55:46.434Z,980.00
2023-07-01T01:56:46.434Z,972.00
2023-07-01T01:57:46.611Z,979.00
2023-07-01T01:58:46.502Z,968.00
2023-07-01T01:59:46.465Z,975.00
2023-07-01T02:00:46.757Z,968.00
2023-07-01T02:01:46.494Z,967.00
2023-07-01T02:02:46.786Z,971.00
2023-07-01T02:03:46.763Z,964.00
2023-07-01T02:04:46.713Z,965.00
2023-07-01T02:05:46.632Z,966.00
2023-07-01T02:06:46.594Z,956.00
2023-07-01T02:07:47.161Z,963.00
2023-07-01T02:08:46.656Z,975.00
2023-07-01T02:09:46.680Z,965.00
2023-07-01T02:10:46.884Z,969.00
2023-07-01T02:11:46.739Z,966.00
2023-07-01T02:12:47.062Z,962.00
2023-07-01T02:13:46.771Z,977.00
2023-07-01T02:14:46.782Z,959.00
2023-07-01T02:15:46.835Z,977.00
2023-07-01T02:16:46.916Z,967.00
2023-07-01T02:17:47.199Z,959.00
2023-07-01T02:18:46.874Z,966.00
2023-07-01T02:19:46.892Z,959.00
2023-07-01T02:20:47.286Z,958.00
2023-07-01T02:21:46.888Z,972.00
2023-07-01T02:22:47.118Z,969.00
2023-07-01T02:23:46.940Z,948.00
2023-07-01T02:24:46.988Z,963.00
2023-07-01T02:25:46.997Z,952.00
2023-07-01T02:26:47.009Z,958.00
2023-07-01T02:27:47.041Z,958.00
2023-07-01T02:28:47.041Z,961.00
2023-07-01T02:29:47.073Z,957.00
2023-07-01T02:30:47.416Z,946.00
2023-07-01T02:31:47.098Z,946.00
2023-07-01T02:32:47.633Z,953.00
2023-07-01T02:33:47.157Z,949.00
2023-07-01T02:34:47.156Z,950.00
2023-07-01T02:35:47.199Z,953.00
2023-07-01T02:36:47.232Z,948.00
2023-07-01T02:37:47.588Z,947.00
2023-07-01T02:38:47.218Z,950.00
2023-07-01T02:39:47.271Z,952.00
2023-07-01T02:40:47.568Z,954.00
2023-07-01T02:41:47.334Z,951.00
2023-07-01T02:42:47.622Z,952.00
2023-07-01T02:43:47.329Z,949.00
2023-07-01T02:44:47.383Z,956.00
2023-07-01T02:45:47.351Z,959.00
2023-07-01T02:46:47.453Z,946.00
2023-07-01T02:47:47.433Z,937.00
2023-07-01T02:48:47.424Z,936.00
2023-07-01T02:49:49.562Z,946.00
2023-07-01T02:50:47.785Z,955.00
2023-07-01T02:51:47.479Z,964.00
2023-07-01T02:52:47.534Z,936.00
2023-07-01T02:53:47.560Z,937.00
2023-07-01T02:54:47.603Z,942.00
2023-07-01T02:55:47.614Z,944.00
2023-07-01T02:56:47.668Z,943.00
2023-07-01T02:57:47.650Z,933.00
2023-07-01T02:58:47.687Z,941.00
2023-07-01T02:59:47.705Z,948.00
2023-07-01T03:00:48.072Z,928.00
2023-07-01T03:01:48.440Z,930.00
2023-07-01T03:02:47.830Z,944.00
2023-07-01T03:03:47.875Z,935.00
2023-07-01T03:04:47.951Z,921.00
2023-07-01T03:05:47.882Z,919.00
2023-07-01T03:06:47.901Z,930.00
2023-07-01T03:07:47.928Z,942.00
2023-07-01T03:08:47.960Z,943.00
2023-07-01T03:09:47.960Z,918.00
2023-07-01T03:10:48.223Z,936.00
2023-07-01T03:11:47.992Z,930.00
2023-07-01T03:12:48.043Z,906.00
2023-07-01T03:13:48.045Z,920.00
2023-07-01T03:14:48.055Z,929.00
2023-07-01T03:15:48.103Z,930.00
2023-07-01T03:16:48.098Z,937.00
2023-07-01T03:17:48.102Z,930.00
2023-07-01T03:18:48.126Z,934.00
2023-07-01T03:19:48.113Z,932.00
2023-07-01T03:20:48.577Z,922.00
2023-07-01T03:21:48.161Z,918.00
2023-07-01T03:22:48.623Z,920.00
2023-07-01T03:23:48.217Z,913.00
2023-07-01T03:24:48.228Z,916.00
2023-07-01T03:25:48.269Z,921.00
2023-07-01T03:26:48.276Z,931.00
2023-07-01T03:27:48.651Z,917.00
2023-07-01T03:28:48.315Z,920.00
2023-07-01T03:29:48.373Z,922.00
2023-07-01T03:30:48.589Z,927.00
2023-07-01T03:31:48.427Z,930.00
2023-07-01T03:32:48.669Z,923.00
2023-07-01T03:33:48.423Z,908.00
2023-07-01T03:34:48.451Z,907.00
2023-07-01T03:35:48.461Z,893.00
2023-07-01T03:36:48.520Z,903.00
2023-07-01T03:37:48.628Z,911.00
2023-07-01T03:38:48.543Z,902.00
2023-07-01T03:39:48.572Z,918.00
2023-07-01T03:40:48.698Z,898.00
2023-07-01T03:41:48.616Z,905.00
2023-07-01T03:42:49.218Z,898.00
2023-07-01T03:43:48.673Z,887.00
2023-07-01T03:44:48.695Z,890.00
2023-07-01T03:45:48.751Z,898.00
2023-07-01T03:46:48.732Z,886.00
2023-07-01T03:47:48.772Z,881.00
2023-07-01T03:48:48.804Z,885.00
2023-07-01T03:49:48.823Z,887.00
2023-07-01T03:50:49.307Z,876.00
2023-07-01T03:51:48.868Z,876.00
2023-07-01T03:52:49.141Z,881.00
2023-07-01T03:53:48.968Z,868.00
2023-07-01T03:54:48.910Z,870.00
2023-07-01T03:55:48.962Z,873.00
2023-07-01T03:56:48.961Z,878.00
2023-07-01T03:57:49.008Z,874.00
2023-07-01T03:58:49.017Z,866.00
2023-07-01T03:59:49.042Z,861.00
2023-07-01T04:00:49.307Z,868.00
2023-07-01T04:01:49.280Z,870.00
2023-07-01T04:02:49.147Z,872.00
2023-07-01T04:03:49.214Z,864.00
2023-07-01T04:04:49.197Z,871.00
2023-07-01T04:05:50.125Z,856.00
2023-07-01T04:06:49.244Z,855.00
2023-07-01T04:07:49.255Z,863.00
2023-07-01T04:08:49.290Z,873.00
2023-07-01T04:09:49.279Z,866.00
2023-07-01T04:10:49.457Z,873.00
2023-07-01T04:11:49.412Z,868.00
2023-07-01T04:12:49.398Z,856.00
2023-07-01T04:13:50.143Z,867.00
2023-07-01T04:14:49.452Z,871.00
2023-07-01T04:15:49.448Z,860.00
2023-07-01T04:16:50.471Z,847.00
2023-07-01T04:17:49.642Z,858.00
2023-07-01T04:18:49.632Z,833.00
2023-07-01T04:19:50.147Z,836.00
2023-07-01T04:20:49.805Z,832.00
2023-07-01T04:21:49.718Z,837.00
2023-07-01T04:22:50.171Z,837.00
2023-07-01T04:23:49.788Z,841.00
2023-07-01T04:24:49.822Z,843.00
2023-07-01T04:25:49.839Z,839.00
2023-07-01T04:26:49.843Z,833.00
2023-07-01T04:27:50.145Z,837.00
2023-07-01T04:28:49.917Z,848.00
2023-07-01T04:29:49.973Z,814.00
2023-07-01T04:30:50.478Z,830.00
2023-07-01T04:31:50.084Z,832.00
2023-07-01T04:32:50.172Z,824.00
2023-07-01T04:33:50.054Z,825.00
2023-07-01T04:34:50.100Z,813.00
2023-07-01T04:35:50.101Z,816.00
2023-07-01T04:36:50.120Z,819.00
2023-07-01T04:37:50.695Z,807.00
2023-07-01T04:38:50.165Z,809.00
2023-07-01T04:39:50.185Z,794.00
2023-07-01T04:40:52.975Z,802.00
2023-07-01T04:41:50.245Z,812.00
2023-07-01T04:42:50.845Z,802.00
2023-07-01T04:43:50.192Z,797.00
2023-07-01T04:44:50.198Z,793.00
2023-07-01T04:45:50.176Z,794.00
2023-07-01T04:46:50.318Z,790.00
2023-07-01T04:47:50.660Z,787.00
2023-07-01T04:48:50.193Z,796.00
2023-07-01T04:49:50.197Z,771.00
2023-07-01T04:50:50.165Z,800.00
2023-07-01T04:51:50.163Z,779.00
2023-07-01T04:52:50.182Z,782.00
2023-07-01T04:53:50.195Z,761.00
2023-07-01T04:54:50.190Z,776.00
2023-07-01T04:55:50.101Z,770.00
2023-07-01T04:56:50.155Z,768.00
2023-07-01T04:57:50.156Z,770.00
2023-07-01T04:58:50.117Z,773.00
2023-07-01T04:59:50.083Z,752.00
2023-07-01T05:00:50.116Z,758.00
2023-07-01T05:01:50.243Z,760.00
2023-07-01T05:02:50.354Z,755.00
2023-07-01T05:03:50.137Z,752.00
2023-07-01T05:04:50.169Z,736.00
2023-07-01T05:05:50.061Z,746.00
2023-07-01T05:06:50.020Z,749.00
2023-07-01T05:07:50.276Z,753.00
2023-07-01T05:08:50.027Z,752.00
2023-07-01T05:09:50.036Z,760.00
2023-07-01T05:10:50.072Z,745.00
2023-07-01T05:11:50.042Z,744.00
2023-07-01T05:12:50.214Z,759.00
2023-07-01T05:13:49.992Z,741.00
2023-07-01T05:14:50.043Z,763.00
2023-07-01T05:15:49.975Z,734.00
2023-07-01T05:16:50.068Z,753.00
2023-07-01T05:17:50.215Z,746.00
2023-07-01T05:18:49.993Z,746.00
2023-07-01T05:19:49.943Z,745.00
2023-07-01T05:20:50.271Z,749.00
2023-07-01T05:21:49.927Z,746.00
2023-07-01T05:22:49.947Z,741.00
2023-07-01T05:23:49.961Z,740.00
2023-07-01T05:24:49.930Z,746.00
2023-07-01T05:25:49.911Z,752.00
2023-07-01T05:26:49.927Z,757.00
2023-07-01T05:27:49.912Z,749.00
2023-07-01T05:28:49.918Z,752.00
2023-07-01T05:29:49.878Z,745.00
2023-07-01T05:30:50.202Z,732.00
2023-07-01T05:31:49.905Z,740.00
2023-07-01T05:32:49.903Z,734.00
2023-07-01T05:33:49.885Z,739.00
2023-07-01T05:34:49.885Z,733.00
2023-07-01T05:35:49.883Z,735.00
2023-07-01T05:36:49.866Z,749.00
2023-07-01T05:37:49.992Z,753.00
2023-07-01T05:38:50.890Z,733.00
2023-07-01T05:39:49.967Z,718.00
2023-07-01T05:40:50.156Z,746.00
2023-07-01T05:41:50.039Z,725.00
2023-07-01T05:42:50.090Z,716.00
2023-07-01T05:43:50.105Z,720.00
2023-07-01T05:44:50.155Z,720.00
2023-07-01T05:45:50.227Z,712.00
2023-07-01T05:46:50.224Z,720.00
2023-07-01T05:47:50.262Z,729.00
2023-07-01T05:48:51.132Z,709.00
2023-07-01T05:49:50.270Z,717.00
2023-07-01T05:50:50.340Z,713.00
2023-07-01T05:51:50.330Z,683.00
2023-07-01T05:52:50.332Z,679.00
2023-07-01T05:53:50.384Z,687.00
2023-07-01T05:54:50.372Z,678.00
2023-07-01T05:55:50.374Z,698.00
2023-07-01T05:56:50.425Z,678.00
2023-07-01T05:57:50.708Z,699.00
2023-07-01T05:58:50.512Z,672.00
2023-07-01T05:59:50.542Z,662.00
2023-07-01T06:00:50.561Z,666.00
2023-07-01T06:01:50.607Z,671.00
2023-07-01T06:02:50.716Z,664.00
2023-07-01T06:03:50.666Z,666.00
2023-07-01T06:04:50.682Z,669.00
2023-07-01T06:05:50.691Z,666.00
2023-07-01T06:06:50.717Z,655.00
2023-07-01T06:07:51.232Z,656.00
2023-07-01T06:08:50.783Z,654.00
2023-07-01T06:09:50.829Z,658.00
2023-07-01T06:10:50.865Z,654.00
2023-07-01T06:11:50.849Z,659.00
2023-07-01T06:12:50.878Z,653.00
2023-07-01T06:13:50.880Z,652.00
2023-07-01T06:14:50.946Z,657.00
2023-07-01T06:15:50.965Z,653.00
2023-07-01T06:16:51.006Z,646.00
2023-07-01T06:17:51.127Z,651.00
2023-07-01T06:18:50.997Z,654.00
2023-07-01T06:19:51.083Z,648.00
2023-07-01T06:20:51.075Z,649.00
2023-07-01T06:21:51.119Z,651.00
2023-07-01T06:22:51.153Z,651.00
2023-07-01T06:23:51.167Z,649.00
2023-07-01T06:24:51.203Z,651.00
2023-07-01T06:25:51.203Z,641.00
2023-07-01T06:26:51.201Z,648.00
2023-07-01T06:27:51.270Z,642.00
2023-07-01T06:28:51.270Z,639.00
2023-07-01T06:29:51.284Z,641.00
2023-07-01T06:30:51.372Z,639.00
2023-07-01T06:31:51.463Z,638.00
2023-07-01T06:32:51.406Z,643.00
2023-07-01T06:33:51.382Z,633.00
2023-07-01T06:34:51.387Z,633.00
2023-07-01T06:35:51.367Z,629.00
2023-07-01T06:36:51.376Z,632.00
2023-07-01T06:37:51.436Z,637.00
2023-07-01T06:38:51.455Z,631.00
2023-07-01T06:39:51.503Z,633.00
2023-07-01T06:40:51.520Z,630.00
2023-07-01T06:41:51.549Z,628.00
2023-07-01T06:42:51.553Z,635.00
2023-07-01T06:43:51.556Z,625.00
2023-07-01T06:44:51.601Z,624.00
2023-07-01T06:45:51.610Z,625.00
2023-07-01T06:46:51.629Z,617.00
2023-07-01T06:47:51.729Z,624.00
2023-07-01T06:48:51.666Z,619.00
2023-07-01T06:49:51.720Z,615.00
2023-07-01T06:50:51.715Z,618.00
2023-07-01T06:51:51.728Z,617.00
2023-07-01T06:52:51.742Z,622.00
2023-07-01T06:53:51.758Z,615.00
2023-07-01T06:54:51.820Z,615.00
2023-07-01T06:55:51.828Z,618.00
2023-07-01T06:56:51.826Z,617.00
2023-07-01T06:57:51.838Z,620.00
2023-07-01T06:58:51.865Z,611.00
2023-07-01T06:59:51.896Z,614.00
2023-07-01T07:00:51.910Z,620.00
2023-07-01T07:01:51.945Z,620.00
2023-07-01T07:02:52.018Z,615.00
2023-07-01T07:03:52.052Z,611.00
2023-07-01T07:04:52.017Z,615.00
2023-07-01T07:05:52.022Z,612.00
2023-07-01T07:06:52.044Z,614.00
2023-07-01T07:07:52.064Z,604.00
2023-07-01T07:08:52.098Z,605.00
2023-07-01T07:09:52.123Z,601.00
2023-07-01T07:10:52.141Z,601.00
2023-07-01T07:11:52.161Z,604.00
2023-07-01T07:12:52.193Z,595.00
2023-07-01T07:13:52.221Z,603.00
2023-07-01T07:14:52.262Z,605.00
2023-07-01T07:15:52.269Z,596.00
2023-07-01T07:16:52.271Z,592.00
2023-07-01T07:17:52.359Z,590.00
2023-07-01T07:18:52.410Z,592.00
2023-07-01T07:19:52.374Z,592.00
2023-07-01T07:20:52.345Z,596.00
2023-07-01T07:21:52.336Z,590.00
2023-07-01T07:22:52.379Z,596.00
2023-07-01T07:23:52.384Z,596.00
2023-07-01T07:24:52.428Z,594.00
2023-07-01T07:25:52.397Z,594.00
2023-07-01T07:26:52.437Z,596.00
2023-07-01T07:27:52.486Z,595.00
2023-07-01T07:28:52.507Z,589.00
2023-07-01T07:29:52.485Z,589.00
2023-07-01T07:30:52.584Z,587.00
2023-07-01T07:31:52.567Z,590.00
2023-07-01T07:32:52.558Z,590.00
2023-07-01T07:33:52.540Z,582.00
2023-07-01T07:34:52.578Z,584.00
2023-07-01T07:35:52.604Z,587.00
2023-07-01T07:36:52.621Z,585.00
2023-07-01T07:37:52.649Z,586.00
2023-07-01T07:38:52.650Z,581.00
2023-07-01T07:39:52.684Z,585.00
2023-07-01T07:40:52.709Z,577.00
2023-07-01T07:41:52.726Z,581.00
2023-07-01T07:42:52.758Z,573.00
2023-07-01T07:43:52.827Z,570.00
2023-07-01T07:44:52.839Z,568.00
2023-07-01T07:45:52.860Z,577.00
2023-07-01T07:46:52.940Z,570.00
2023-07-01T07:47:53.290Z,571.00
2023-07-01T07:48:52.899Z,575.00
2023-07-01T07:49:52.930Z,573.00
2023-07-01T07:50:53.003Z,574.00
2023-07-01T07:51:53.022Z,577.00
2023-07-01T07:52:53.009Z,573.00
2023-07-01T07:53:53.041Z,566.00
2023-07-01T07:54:53.036Z,570.00
2023-07-01T07:55:53.101Z,566.00
2023-07-01T07:56:53.097Z,567.00
2023-07-01T07:57:53.155Z,566.00
2023-07-01T07:58:53.181Z,566.00
2023-07-01T07:59:53.192Z,572.00
2023-07-01T08:00:53.207Z,567.00
2023-07-01T08:01:53.234Z,563.00
2023-07-01T08:02:53.239Z,565.00
2023-07-01T08:03:53.378Z,563.00
2023-07-01T08:04:53.399Z,568.00
2023-07-01T08:05:53.290Z,562.00
2023-07-01T08:06:53.305Z,562.00
2023-07-01T08:07:53.339Z,561.00
2023-07-01T08:08:53.405Z,572.00
2023-07-01T08:09:53.367Z,566.00
2023-07-01T08:10:53.400Z,559.00
2023-07-01T08:11:53.409Z,561.00
2023-07-01T08:12:53.483Z,567.00
2023-07-01T08:13:53.457Z,556.00
2023-07-01T08:14:53.478Z,558.00
2023-07-01T08:15:53.528Z,562.00
2023-07-01T08:16:53.669Z,557.00
2023-07-01T08:17:53.613Z,563.00
2023-07-01T08:18:53.630Z,569.00
2023-07-01T08:19:53.626Z,568.00
2023-07-01T08:20:53.654Z,562.00
2023-07-01T08:21:53.644Z,566.00
2023-07-01T08:22:55.840Z,562.00
2023-07-01T08:23:53.685Z,567.00
2023-07-01T08:24:53.687Z,561.00
2023-07-01T08:25:53.668Z,558.00
2023-07-01T08:26:53.636Z,558.00
2023-07-01T08:27:53.650Z,559.00
2023-07-01T08:28:53.693Z,561.00
2023-07-01T08:29:53.630Z,558.00
2023-07-01T08:30:53.750Z,557.00
2023-07-01T08:31:53.616Z,554.00
2023-07-01T08:32:53.712Z,552.00
2023-07-01T08:33:53.585Z,554.00
2023-07-01T08:34:53.618Z,554.00
2023-07-01T08:35:53.598Z,554.00
2023-07-01T08:36:53.578Z,550.00
2023-07-01T08:37:53.625Z,552.00
2023-07-01T08:38:53.604Z,543.00
2023-07-01T08:39:53.615Z,542.00
2023-07-01T08:40:53.605Z,549.00
2023-07-01T08:41:53.614Z,545.00
2023-07-01T08:42:53.566Z,545.00
2023-07-01T08:43:53.588Z,547.00
2023-07-01T08:44:53.535Z,550.00
2023-07-01T08:45:53.572Z,547.00
2023-07-01T08:46:53.519Z,543.00
2023-07-01T08:47:53.572Z,543.00
2023-07-01T08:48:53.568Z,541.00
2023-07-01T08:49:53.540Z,539.00
2023-07-01T08:50:53.501Z,546.00
2023-07-01T08:51:53.544Z,538.00
2023-07-01T08:52:53.488Z,535.00
2023-07-01T08:53:53.482Z,533.00
2023-07-01T08:54:53.499Z,531.00
2023-07-01T08:55:53.483Z,527.00
2023-07-01T08:56:53.505Z,528.00
2023-07-01T08:57:53.464Z,529.00
2023-07-01T08:58:53.503Z,530.00
2023-07-01T08:59:53.494Z,526.00
2023-07-01T09:00:53.443Z,520.00
2023-07-01T09:01:53.473Z,525.00
2023-07-01T09:02:53.519Z,522.00
2023-07-01T09:03:53.444Z,527.00
2023-07-01T09:04:53.503Z,525.00
2023-07-01T09:05:53.432Z,521.00
2023-07-01T09:06:53.380Z,520.00
2023-07-01T09:07:53.770Z,521.00
2023-07-01T09:08:53.395Z,516.00
2023-07-01T09:09:53.381Z,517.00
2023-07-01T09:10:53.394Z,513.00
2023-07-01T09:11:53.374Z,516.00
2023-07-01T09:12:53.795Z,512.00
2023-07-01T09:13:53.369Z,506.00
2023-07-01T09:14:53.340Z,506.00
2023-07-01T09:15:53.343Z,507.00
2023-07-01T09:16:53.357Z,504.00
2023-07-01T09:17:53.406Z,505.00
2023-07-01T09:18:53.330Z,501.00
2023-07-01T09:19:53.278Z,506.00
2023-07-01T09:20:53.315Z,508.00
2023-07-01T09:21:53.287Z,509.00
2023-07-01T09:22:53.286Z,504.00
2023-07-01T09:23:53.280Z,506.00
2023-07-01T09:24:53.269Z,505.00
2023-07-01T09:25:53.278Z,505.00
2023-07-01T09:26:53.296Z,507.00
2023-07-01T09:27:53.269Z,509.00
2023-07-01T09:28:53.247Z,510.00
2023-07-01T09:29:53.288Z,503.00
2023-07-01T09:30:53.251Z,502.00
2023-07-01T09:31:53.376Z,507.00
2023-07-01T09:32:53.314Z,508.00
2023-07-01T09:33:53.235Z,512.00
2023-07-01T09:34:53.236Z,511.00
2023-07-01T09:35:53.245Z,506.00
2023-07-01T09:36:53.193Z,508.00
2023-07-01T09:37:53.192Z,509.00
2023-07-01T09:38:53.227Z,506.00
2023-07-01T09:39:53.177Z,501.00
2023-07-01T09:40:53.168Z,507.00
2023-07-01T09:41:53.169Z,500.00
2023-07-01T09:42:53.179Z,510.00
2023-07-01T09:43:53.161Z,506.00
2023-07-01T09:44:53.140Z,503.00
2023-07-01T09:45:53.173Z,508.00
2023-07-01T09:46:53.148Z,507.00
2023-07-01T09:47:53.211Z,502.00
2023-07-01T09:48:53.114Z,506.00
2023-07-01T09:49:53.136Z,509.00
2023-07-01T09:50:53.160Z,506.00
2023-07-01T09:51:53.190Z,511.00
2023-07-01T09:52:53.191Z,501.00
2023-07-01T09:53:53.206Z,504.00
2023-07-01T09:54:53.225Z,500.00
2023-07-01T09:55:53.206Z,503.00
2023-07-01T09:56:53.281Z,502.00
2023-07-01T09:57:53.283Z,504.00
2023-07-01T09:58:53.243Z,500.00
2023-07-01T09:59:53.310Z,504.00
2023-07-01T10:00:53.361Z,507.00
2023-07-01T10:01:53.367Z,508.00
2023-07-01T10:02:53.470Z,504.00
2023-07-01T10:03:53.484Z,504.00
2023-07-01T10:04:53.437Z,504.00
2023-07-01T10:05:53.409Z,502.00
2023-07-01T10:06:53.441Z,502.00
2023-07-01T10:07:53.420Z,509.00
2023-07-01T10:08:53.489Z,503.00
2023-07-01T10:09:53.425Z,505.00
2023-07-01T10:10:53.473Z,504.00
2023-07-01T10:11:53.468Z,504.00
2023-07-01T10:12:53.486Z,500.00
2023-07-01T10:13:53.554Z,503.00
2023-07-01T10:14:53.492Z,503.00
2023-07-01T10:15:53.517Z,500.00
2023-07-01T10:16:53.572Z,500.00
2023-07-01T10:17:53.610Z,513.00
2023-07-01T10:18:53.574Z,502.00
2023-07-01T10:19:53.584Z,500.00
2023-07-01T10:20:53.614Z,510.00
2023-07-01T10:21:53.606Z,508.00
2023-07-01T10:22:53.687Z,509.00
2023-07-01T10:23:53.661Z,513.00
2023-07-01T10:24:53.649Z,499.00
2023-07-01T10:25:53.656Z,500.00
2023-07-01T10:26:53.689Z,500.00
2023-07-01T10:27:53.750Z,502.00
2023-07-01T10:28:53.741Z,501.00
2023-07-01T10:29:53.766Z,506.00
2023-07-01T10:30:53.793Z,509.00
2023-07-01T10:31:53.750Z,503.00
2023-07-01T10:32:53.862Z,513.00
2023-07-01T10:33:53.806Z,507.00
2023-07-01T10:34:53.838Z,507.00
2023-07-01T10:35:53.803Z,502.00
2023-07-01T10:36:53.806Z,513.00
2023-07-01T10:37:53.822Z,507.00
2023-07-01T10:38:53.865Z,505.00
2023-07-01T10:39:53.868Z,505.00
2023-07-01T10:40:53.834Z,510.00
2023-07-01T10:41:53.903Z,511.00
2023-07-01T10:42:53.882Z,509.00
2023-07-01T10:43:53.860Z,498.00
2023-07-01T10:44:53.870Z,510.00
2023-07-01T10:45:53.852Z,501.00
2023-07-01T10:46:53.890Z,512.00
2023-07-01T10:47:53.902Z,510.00
2023-07-01T10:48:53.906Z,507.00
2023-07-01T10:49:53.872Z,519.00
2023-07-01T10:50:53.867Z,512.00
2023-07-01T10:51:53.865Z,502.00
2023-07-01T10:52:53.871Z,502.00
2023-07-01T10:53:53.860Z,501.00
2023-07-01T10:54:53.883Z,506.00
2023-07-01T10:55:53.844Z,500.00
2023-07-01T10:56:53.896Z,502.00
2023-07-01T10:57:53.870Z,507.00
2023-07-01T10:58:53.888Z,516.00
2023-07-01T10:59:53.847Z,513.00
2023-07-01T11:00:53.895Z,506.00
2023-07-01T11:01:53.905Z,506.00
2023-07-01T11:02:53.956Z,504.00
2023-07-01T11:03:54.021Z,502.00
2023-07-01T11:04:54.009Z,513.00
2023-07-01T11:05:53.905Z,509.00
2023-07-01T11:06:53.923Z,512.00
2023-07-01T11:07:53.925Z,511.00
2023-07-01T11:08:53.912Z,508.00
2023-07-01T11:09:53.951Z,510.00
2023-07-01T11:10:53.944Z,502.00
2023-07-01T11:11:53.970Z,512.00
2023-07-01T11:12:53.953Z,514.00
2023-07-01T11:13:53.977Z,507.00
2023-07-01T11:14:53.983Z,520.00
2023-07-01T11:15:54.016Z,512.00
2023-07-01T11:16:54.012Z,535.00
2023-07-01T11:17:54.028Z,518.00
2023-07-01T11:18:53.994Z,503.00
2023-07-01T11:19:54.068Z,519.00
2023-07-01T11:20:54.068Z,512.00
2023-07-01T11:21:54.127Z,536.00
2023-07-01T11:22:54.109Z,535.00
2023-07-01T11:23:54.192Z,525.00
2023-07-01T11:24:54.204Z,526.00
2023-07-01T11:25:54.312Z,518.00
2023-07-01T11:26:54.312Z,506.00
2023-07-01T11:27:54.353Z,504.00
2023-07-01T11:28:54.385Z,509.00
2023-07-01T11:29:54.419Z,522.00
2023-07-01T11:30:54.365Z,519.00
2023-07-01T11:31:54.509Z,515.00
2023-07-01T11:32:54.501Z,502.00
2023-07-01T11:33:54.474Z,517.00
2023-07-01T11:34:54.510Z,513.00
2023-07-01T11:35:54.534Z,504.00
2023-07-01T11:36:54.556Z,500.00
2023-07-01T11:37:54.594Z,512.00
2023-07-01T11:38:54.605Z,500.00
2023-07-01T11:39:54.762Z,518.00
2023-07-01T11:40:54.651Z,523.00
2023-07-01T11:41:54.679Z,506.00
2023-07-01T11:42:54.661Z,519.00
2023-07-01T11:43:54.744Z,505.00
2023-07-01T11:44:54.755Z,516.00
2023-07-01T11:45:54.778Z,525.00
2023-07-01T11:46:54.841Z,513.00
2023-07-01T11:47:54.839Z,521.00
2023-07-01T11:48:54.822Z,520.00
2023-07-01T11:49:54.795Z,512.00
2023-07-01T11:50:54.833Z,502.00
2023-07-01T11:51:54.833Z,503.00
2023-07-01T11:52:54.846Z,521.00
2023-07-01T11:53:54.846Z,518.00
2023-07-01T11:54:54.881Z,541.00
2023-07-01T11:55:54.902Z,552.00
2023-07-01T11:56:54.936Z,531.00
2023-07-01T11:57:54.993Z,511.00
2023-07-01T11:59:01.162Z,504.00
2023-07-01T11:59:56.084Z,504.00
2023-07-01T12:00:55.027Z,507.00
2023-07-01T12:01:55.060Z,486.00
2023-07-01T12:02:55.031Z,498.00
2023-07-01T12:03:55.076Z,500.00
2023-07-01T12:04:55.088Z,500.00
2023-07-01T12:05:55.019Z,521.00
2023-07-01T12:06:54.957Z,502.00
2023-07-01T12:07:55.002Z,501.00
2023-07-01T12:09:06.711Z,522.00
2023-07-01T12:09:56.023Z,501.00
2023-07-01T12:10:54.968Z,519.00
2023-07-01T12:11:54.956Z,482.00
2023-07-01T12:12:54.920Z,487.00
2023-07-01T12:13:54.961Z,480.00
2023-07-01T12:14:54.961Z,498.00
2023-07-01T12:15:54.972Z,501.00
2023-07-01T12:16:54.933Z,499.00
2023-07-01T12:17:55.007Z,513.00
2023-07-01T12:18:54.933Z,504.00
2023-07-01T12:19:54.896Z,504.00
2023-07-01T12:20:54.898Z,522.00
2023-07-01T12:21:54.910Z,506.00
2023-07-01T12:22:54.940Z,518.00
2023-07-01T12:23:54.989Z,549.00
2023-07-01T12:24:55.058Z,561.00
2023-07-01T12:25:55.122Z,531.00